Terminal Aerodrome Forecast
Issued by NWS

Current Version | Previous Version | Graphics & Text | Print | Product List | Glossary On
Versions: 1 2 3 4 5 6 7 8 9 10 11 12 13 14 15 16 17 18 19 20 21 22 23
352
FTUS41 KPBZ 070529
TAFHLG
TAF
KHLG 070529Z 0706/0806 20005KT P6SM SKC
     FM071800 20008G16KT P6SM BKN250
     FM080100 16006KT P6SM BKN100=

USA.gov is the U.S. government's official web portal to all federal, state and local government web resources and services.